Time;durP1;ratioP1;P1;durP2;ratioP2;P2;SDS_P1;SDS_P2;PMS_P1;PMS_P2;Temp;Humidity;BMP_temperature;BMP_pressure;BME280_temperature;BME280_humidity;BME280_pressure;Samples;Min_cycle;Max_cycle;Signal;HPM_P1;HPM_P2
2020/12/21 00:01:59;;;;;;;;;;;;;;;;;;5064081;28;19916;-70
2020/12/21 00:04:25;;;;;;;;;;;;;;;;;;5060576;28;20686;-68
2020/12/21 00:06:51;;;;;;;;;;;;;;;;;;5062226;28;20019;-68
2020/12/21 00:09:17;;;;;;;;;;;;;;;;;;5061198;28;19913;-69
2020/12/21 00:11:43;;;;;;;;;;;;;;;;;;5069726;28;19948;-69
2020/12/21 00:14:09;;;;;;;;;;;;;;;;;;5062855;28;20352;-69
2020/12/21 00:16:35;;;;;;;;;;;;;;;;;;5059185;28;19912;-69
2020/12/21 00:19:00;;;;;;;;;;;;;;;;;;5059750;28;19908;-69
2020/12/21 00:21:26;;;;;;;;;;;;;;;;;;5051873;28;20399;-68
2020/12/21 00:23:52;;;;;;;;;;;;;;;;;;5059290;28;19991;-69
2020/12/21 00:26:18;;;;;;;;;;;;;;;;;;5060340;28;19909;-68
2020/12/21 00:28:44;;;;;;;;;;;;;;;;;;5064491;28;19967;-68
2020/12/21 00:31:10;;;;;;;;;;;;;;;;;;5061876;28;19945;-68
2020/12/21 00:33:36;;;;;;;;;;;;;;;;;;5059927;28;19951;-69
2020/12/21 00:36:02;;;;;;;;;;;;;;;;;;5061458;28;19944;-68
2020/12/21 00:38:28;;;;;;;;;;;;;;;;;;5069670;28;19920;-69
2020/12/21 00:40:54;;;;;;;;;;;;;;;;;;5064576;28;20339;-68
2020/12/21 00:43:20;;;;;;;;;;;;;;;;;;5059881;28;19927;-69
2020/12/21 00:45:45;;;;;;;;;;;;;;;;;;5062327;28;19912;-69
2020/12/21 00:48:11;;;;;;;;;;;;;;;;;;5059039;28;19960;-69
2020/12/21 00:50:37;;;;;;;;;;;;;;;;;;5055404;28;20308;-68
2020/12/21 00:53:03;;;;;;;;;;;;;;;;;;5061702;28;19966;-68
2020/12/21 00:55:29;;;;;;;;;;;;;;;;;;5058810;28;20412;-68
2020/12/21 00:57:55;;;;;;;;;;;;;;;;;;5049555;28;19952;-68
2020/12/21 01:00:21;;;;;;;;;;;;;;;;;;5062252;28;19912;-69
2020/12/21 01:02:47;;;;;;;;;;;;;;;;;;5063645;28;19958;-69
2020/12/21 01:05:13;;;;;;;;;;;;;;;;;;5059893;28;20374;-68
2020/12/21 01:07:39;;;;;;;;;;;;;;;;;;5062849;28;19940;-68
2020/12/21 01:10:04;;;;;;;;;;;;;;;;;;5063218;28;19948;-68
2020/12/21 01:12:30;;;;;;;;;;;;;;;;;;5066203;28;19980;-68
2020/12/21 01:14:56;;;;;;;;;;;;;;;;;;5055870;28;20329;-69
2020/12/21 01:17:22;;;;;;;;;;;;;;;;;;5068912;28;19999;-68
2020/12/21 01:19:48;;;;;;;;;;;;;;;;;;5056988;28;19913;-68
2020/12/21 01:22:14;;;;;;;;;;;;;;;;;;5056516;28;19948;-68
2020/12/21 01:24:41;;;;;;;;;;;;;;;;;;5061199;28;19963;-69
2020/12/21 01:27:07;;;;;;;;;;;;;;;;;;5062366;28;19956;-68
2020/12/21 01:29:33;;;;;;;;;;;;;;;;;;5061650;28;19955;-68
2020/12/21 01:31:58;;;;;;;;;;;;;;;;;;5068946;28;20002;-69
2020/12/21 01:34:24;;;;;;;;;;;;;;;;;;5068235;28;19913;-67
2020/12/21 01:36:50;;;;;;;;;;;;;;;;;;5050911;28;19912;-68
2020/12/21 01:39:16;;;;;;;;;;;;;;;;;;5053403;28;19913;-68
2020/12/21 01:41:42;;;;;;;;;;;;;;;;;;5062848;28;19908;-68
2020/12/21 01:44:08;;;;;;;;;;;;;;;;;;5066648;28;19959;-68
2020/12/21 01:46:34;;;;;;;;;;;;;;;;;;5051460;28;19967;-69
2020/12/21 01:49:00;;;;;;;;;;;;;;;;;;5057295;28;20344;-68
2020/12/21 01:51:26;;;;;;;;;;;;;;;;;;5051028;28;20440;-67
2020/12/21 01:53:52;;;;;;;;;;;;;;;;;;5050497;28;20008;-68
2020/12/21 01:56:18;;;;;;;;;;;;;;;;;;5059186;28;19996;-68
2020/12/21 01:58:43;;;;;;;;;;;;;;;;;;5057721;28;19913;-68
2020/12/21 02:01:09;;;;;;;;;;;;;;;;;;5062263;28;19913;-68
2020/12/21 02:03:35;;;;;;;;;;;;;;;;;;5059315;28;19948;-68
2020/12/21 02:06:01;;;;;;;;;;;;;;;;;;5055198;28;19944;-67
2020/12/21 02:08:27;;;;;;;;;;;;;;;;;;5069777;28;20015;-68
2020/12/21 02:10:53;;;;;;;;;;;;;;;;;;5059410;28;20003;-68
2020/12/21 02:13:19;;;;;;;;;;;;;;;;;;5066950;28;19960;-68
2020/12/21 02:15:45;;;;;;;;;;;;;;;;;;5064278;28;19927;-68
2020/12/21 02:18:11;;;;;;;;;;;;;;;;;;5072539;28;19958;-68
2020/12/21 02:20:37;;;;;;;;;;;;;;;;;;5060916;28;19959;-68
2020/12/21 02:23:02;;;;;;;;;;;;;;;;;;5073388;28;19935;-69
2020/12/21 02:25:28;;;;;;;;;;;;;;;;;;5088475;28;19912;-69
2020/12/21 02:27:54;;;;;;;;;;;;;;;;;;5071972;28;19921;-68
2020/12/21 02:30:20;;;;;;;;;;;;;;;;;;5066876;28;19908;-68
2020/12/21 02:32:46;;;;;;;;;;;;;;;;;;5066503;28;19913;-68
2020/12/21 02:35:12;;;;;;;;;;;;;;;;;;5069575;28;19913;-68
2020/12/21 02:37:38;;;;;;;;;;;;;;;;;;5056034;28;20386;-67
2020/12/21 02:40:04;;;;;;;;;;;;;;;;;;5072586;28;20471;-68
2020/12/21 02:42:30;;;;;;;;;;;;;;;;;;5071780;28;19994;-68
2020/12/21 02:44:56;;;;;;;;;;;;;;;;;;5064283;28;19955;-68
2020/12/21 02:47:22;;;;;;;;;;;;;;;;;;5064613;28;20365;-68
2020/12/21 02:49:48;;;;;;;;;;;;;;;;;;5065681;28;19959;-68
2020/12/21 02:52:14;;;;;;;;;;;;;;;;;;5072842;28;20007;-68
2020/12/21 02:54:40;;;;;;;;;;;;;;;;;;5065020;28;19913;-67
2020/12/21 02:57:06;;;;;;;;;;;;;;;;;;5070460;28;20023;-68
2020/12/21 02:59:32;;;;;;;;;;;;;;;;;;5065494;28;20013;-68
2020/12/21 03:01:58;;;;;;;;;;;;;;;;;;5071048;28;19920;-68
2020/12/21 03:04:24;;;;;;;;;;;;;;;;;;5060917;28;19917;-68
2020/12/21 03:06:50;;;;;;;;;;;;;;;;;;5062097;28;20414;-68
2020/12/21 03:09:16;;;;;;;;;;;;;;;;;;5062896;28;20003;-70
2020/12/21 03:11:42;;;;;;;;;;;;;;;;;;5070925;28;19927;-67
2020/12/21 03:14:08;;;;;;;;;;;;;;;;;;5062570;28;20398;-67
2020/12/21 03:16:33;;;;;;;;;;;;;;;;;;5065350;28;19915;-70
2020/12/21 03:18:59;;;;;;;;;;;;;;;;;;5070265;28;19919;-70
2020/12/21 03:21:25;;;;;;;;;;;;;;;;;;5066339;28;19952;-69
2020/12/21 03:23:51;;;;;;;;;;;;;;;;;;5065049;28;20357;-68
2020/12/21 03:26:17;;;;;;;;;;;;;;;;;;5064748;28;19912;-67
2020/12/21 03:28:43;;;;;;;;;;;;;;;;;;5070919;28;19975;-67
2020/12/21 03:31:09;;;;;;;;;;;;;;;;;;5063402;28;19940;-67
2020/12/21 03:33:35;;;;;;;;;;;;;;;;;;5059928;28;20379;-68
2020/12/21 03:36:01;;;;;;;;;;;;;;;;;;5060396;28;19920;-68
2020/12/21 03:38:27;;;;;;;;;;;;;;;;;;5066594;28;19951;-68
2020/12/21 03:40:52;;;;;;;;;;;;;;;;;;5059805;28;20471;-68
2020/12/21 03:43:19;;;;;;;;;;;;;;;;;;5060872;28;19919;-68
2020/12/21 03:45:45;;;;;;;;;;;;;;;;;;5060197;28;19959;-67
2020/12/21 03:48:11;;;;;;;;;;;;;;;;;;5066189;28;19963;-67
2020/12/21 03:50:37;;;;;;;;;;;;;;;;;;5069676;28;19913;-68
2020/12/21 03:53:03;;;;;;;;;;;;;;;;;;5059192;28;19913;-70
2020/12/21 03:55:29;;;;;;;;;;;;;;;;;;5066543;28;19912;-70
2020/12/21 03:57:54;;;;;;;;;;;;;;;;;;5059448;28;19917;-68
2020/12/21 04:00:20;;;;;;;;;;;;;;;;;;5051309;28;20292;-69
2020/12/21 04:02:46;;;;;;;;;;;;;;;;;;5062270;28;19948;-69
2020/12/21 04:05:12;;;;;;;;;;;;;;;;;;5063068;28;20012;-69
2020/12/21 04:07:38;;;;;;;;;;;;;;;;;;5062887;28;20275;-69
2020/12/21 04:10:04;;;;;;;;;;;;;;;;;;5062876;28;19908;-69
2020/12/21 04:12:30;;;;;;;;;;;;;;;;;;5061653;28;19908;-69
2020/12/21 04:14:56;;;;;;;;;;;;;;;;;;5051189;28;20020;-69
2020/12/21 04:17:22;;;;;;;;;;;;;;;;;;5054473;28;20399;-68
2020/12/21 04:19:48;;;;;;;;;;;;;;;;;;5065093;28;19914;-69
2020/12/21 04:22:13;;;;;;;;;;;;;;;;;;5059767;28;19959;-69
2020/12/21 04:24:39;;;;;;;;;;;;;;;;;;5064364;28;19987;-69
2020/12/21 04:27:05;;;;;;;;;;;;;;;;;;5065472;28;19912;-69
2020/12/21 04:29:31;;;;;;;;;;;;;;;;;;5059401;28;19923;-70
2020/12/21 04:31:57;;;;;;;;;;;;;;;;;;5051943;28;19915;-69
2020/12/21 04:34:23;;;;;;;;;;;;;;;;;;5063729;28;19965;-69
2020/12/21 04:36:49;;;;;;;;;;;;;;;;;;5062433;28;19988;-69
2020/12/21 04:39:15;;;;;;;;;;;;;;;;;;5068619;28;19917;-69
2020/12/21 04:41:41;;;;;;;;;;;;;;;;;;5064853;28;20399;-68
2020/12/21 04:44:07;;;;;;;;;;;;;;;;;;5058425;28;19998;-69
2020/12/21 04:46:32;;;;;;;;;;;;;;;;;;5059437;28;19909;-69
2020/12/21 04:48:58;;;;;;;;;;;;;;;;;;5059102;28;19948;-69
2020/12/21 04:51:24;;;;;;;;;;;;;;;;;;5055584;28;19912;-70
2020/12/21 04:53:50;;;;;;;;;;;;;;;;;;5055904;28;20004;-69
2020/12/21 04:56:16;;;;;;;;;;;;;;;;;;5059981;28;19920;-69
2020/12/21 04:58:42;;;;;;;;;;;;;;;;;;5064260;28;19916;-69
2020/12/21 05:01:08;;;;;;;;;;;;;;;;;;5061441;28;20524;-70
2020/12/21 05:03:34;;;;;;;;;;;;;;;;;;5066408;28;20007;-69
2020/12/21 05:06:00;;;;;;;;;;;;;;;;;;5056371;28;19912;-69
2020/12/21 05:08:26;;;;;;;;;;;;;;;;;;5049491;28;20392;-69
2020/12/21 05:10:51;;;;;;;;;;;;;;;;;;5054740;28;19913;-69
2020/12/21 05:13:17;;;;;;;;;;;;;;;;;;5070328;28;20007;-69
2020/12/21 05:15:43;;;;;;;;;;;;;;;;;;5064450;28;20294;-69
2020/12/21 05:18:09;;;;;;;;;;;;;;;;;;5053185;28;19919;-69
2020/12/21 05:20:35;;;;;;;;;;;;;;;;;;5057369;28;19923;-70
2020/12/21 05:23:01;;;;;;;;;;;;;;;;;;5051446;28;19916;-68
2020/12/21 05:25:27;;;;;;;;;;;;;;;;;;5050311;28;19979;-70
2020/12/21 05:27:53;;;;;;;;;;;;;;;;;;5057934;28;19923;-69
2020/12/21 05:30:19;;;;;;;;;;;;;;;;;;5059272;28;19971;-69
2020/12/21 05:32:45;;;;;;;;;;;;;;;;;;5061894;28;19962;-69
2020/12/21 05:35:11;;;;;;;;;;;;;;;;;;5055632;28;19913;-69
2020/12/21 05:37:36;;;;;;;;;;;;;;;;;;5054679;28;20288;-69
2020/12/21 05:40:02;;;;;;;;;;;;;;;;;;5059094;28;19978;-69
2020/12/21 05:42:28;;;;;;;;;;;;;;;;;;5060904;28;20001;-69
2020/12/21 05:44:54;;;;;;;;;;;;;;;;;;5064696;28;20017;-69
2020/12/21 05:47:20;;;;;;;;;;;;;;;;;;5068512;28;20055;-68
2020/12/21 05:49:46;;;;;;;;;;;;;;;;;;5056369;28;19963;-69
2020/12/21 05:52:12;;;;;;;;;;;;;;;;;;5062653;28;19952;-68
2020/12/21 05:54:38;;;;;;;;;;;;;;;;;;5069633;28;19987;-69
2020/12/21 05:57:04;;;;;;;;;;;;;;;;;;5067015;28;19912;-70
2020/12/21 05:59:29;;;;;;;;;;;;;;;;;;5054606;28;19912;-68
2020/12/21 06:01:55;;;;;;;;;;;;;;;;;;5063830;28;20366;-69
2020/12/21 06:04:21;;;;;;;;;;;;;;;;;;5052227;28;19912;-69
2020/12/21 06:06:47;;;;;;;;;;;;;;;;;;5057079;28;19912;-70
2020/12/21 06:09:13;;;;;;;;;;;;;;;;;;5055604;28;20330;-69
2020/12/21 06:11:39;;;;;;;;;;;;;;;;;;5062190;28;19920;-69
2020/12/21 06:14:05;;;;;;;;;;;;;;;;;;5064880;28;19916;-69
2020/12/21 06:16:31;;;;;;;;;;;;;;;;;;5074218;28;19920;-70
2020/12/21 06:18:57;;;;;;;;;;;;;;;;;;5082268;28;19912;-70
2020/12/21 06:21:23;;;;;;;;;;;;;;;;;;5075580;28;19935;-69
2020/12/21 06:23:48;;;;;;;;;;;;;;;;;;5062309;28;19908;-69
2020/12/21 06:26:14;;;;;;;;;;;;;;;;;;5067199;28;20069;-69
2020/12/21 06:28:40;;;;;;;;;;;;;;;;;;5056607;28;20383;-69
2020/12/21 06:31:06;;;;;;;;;;;;;;;;;;5069146;28;19995;-68
2020/12/21 06:33:32;;;;;;;;;;;;;;;;;;5067492;28;20006;-68
2020/12/21 06:35:58;;;;;;;;;;;;;;;;;;5060695;28;20483;-70
2020/12/21 06:38:24;;;;;;;;;;;;;;;;;;5056766;28;19909;-69
2020/12/21 06:40:50;;;;;;;;;;;;;;;;;;5051871;28;19913;-69
2020/12/21 06:43:17;;;;;;;;;;;;;;;;;;5064825;28;20008;-69
2020/12/21 06:45:42;;;;;;;;;;;;;;;;;;5056891;28;20367;-70
2020/12/21 06:48:08;;;;;;;;;;;;;;;;;;5062910;28;19967;-70
2020/12/21 06:50:34;;;;;;;;;;;;;;;;;;5061753;28;19943;-68
2020/12/21 06:53:00;;;;;;;;;;;;;;;;;;5064075;28;19948;-69
2020/12/21 06:55:26;;;;;;;;;;;;;;;;;;5062198;28;20007;-69
2020/12/21 06:57:52;;;;;;;;;;;;;;;;;;5062143;28;19934;-69
2020/12/21 07:00:18;;;;;;;;;;;;;;;;;;5060381;28;19966;-69
2020/12/21 07:02:44;;;;;;;;;;;;;;;;;;5067101;28;20301;-69
2020/12/21 07:05:10;;;;;;;;;;;;;;;;;;5066595;22;19960;-69
2020/12/21 07:07:36;;;;;;;;;;;;;;;;;;5046667;28;19991;-69
2020/12/21 07:10:02;;;;;;;;;;;;;;;;;;5052681;28;19949;-68
2020/12/21 07:12:27;;;;;;;;;;;;;;;;;;5053339;28;20359;-68
2020/12/21 07:14:53;;;;;;;;;;;;;;;;;;5031320;28;19987;-68
2020/12/21 07:17:20;;;;;;;;;;;;;;;;;;5032759;28;21385;-68
2020/12/21 07:19:47;;;;;;;;;;;;;;;;;;5033944;28;19920;-68
2020/12/21 07:22:13;;;;;;;;;;;;;;;;;;5040184;28;19934;-69
2020/12/21 07:24:39;;;;;;;;;;;;;;;;;;5036494;28;19909;-70
2020/12/21 07:27:05;;;;;;;;;;;;;;;;;;5031192;28;19967;-69
2020/12/21 07:29:31;;;;;;;;;;;;;;;;;;5032782;28;20337;-68
2020/12/21 07:31:56;;;;;;;;;;;;;;;;;;5032667;28;19999;-67
2020/12/21 07:34:22;;;;;;;;;;;;;;;;;;5030710;28;19913;-68
2020/12/21 07:36:48;;;;;;;;;;;;;;;;;;5030919;28;19937;-68
2020/12/21 07:39:14;;;;;;;;;;;;;;;;;;5032854;28;20301;-68
2020/12/21 07:41:40;;;;;;;;;;;;;;;;;;5032465;28;19955;-69
2020/12/21 07:44:06;;;;;;;;;;;;;;;;;;5032487;28;19929;-69
2020/12/21 07:46:32;;;;;;;;;;;;;;;;;;5025318;28;20019;-68
2020/12/21 07:48:58;;;;;;;;;;;;;;;;;;5032034;28;20040;-68
2020/12/21 07:51:24;;;;;;;;;;;;;;;;;;5031075;28;20000;-69
2020/12/21 07:53:50;;;;;;;;;;;;;;;;;;5033221;28;19909;-69
2020/12/21 07:56:16;;;;;;;;;;;;;;;;;;5031326;28;19913;-68
2020/12/21 07:58:42;;;;;;;;;;;;;;;;;;5030616;28;20026;-68
2020/12/21 08:01:08;;;;;;;;;;;;;;;;;;5030980;28;19917;-68
2020/12/21 08:03:34;;;;;;;;;;;;;;;;;;5032336;28;20296;-68
2020/12/21 08:06:00;;;;;;;;;;;;;;;;;;5031549;28;19917;-68
2020/12/21 08:08:25;;;;;;;;;;;;;;;;;;5031641;28;19971;-68
2020/12/21 08:10:51;;;;;;;;;;;;;;;;;;5031095;28;20385;-69
2020/12/21 08:13:17;;;;;;;;;;;;;;;;;;5031066;28;19924;-68
2020/12/21 08:15:43;;;;;;;;;;;;;;;;;;5030190;28;20035;-69
2020/12/21 08:18:09;;;;;;;;;;;;;;;;;;5026994;28;20376;-68
2020/12/21 08:20:35;;;;;;;;;;;;;;;;;;5030834;28;20462;-68
2020/12/21 08:23:01;;;;;;;;;;;;;;;;;;5029979;28;20007;-68
2020/12/21 08:25:27;;;;;;;;;;;;;;;;;;5032508;28;20036;-68
2020/12/21 08:27:53;;;;;;;;;;;;;;;;;;5031656;28;20503;-68
2020/12/21 08:30:19;;;;;;;;;;;;;;;;;;5032232;28;19920;-69
2020/12/21 08:32:45;;;;;;;;;;;;;;;;;;5031935;28;20043;-68
2020/12/21 08:35:11;;;;;;;;;;;;;;;;;;5029255;28;19948;-68
2020/12/21 08:37:37;;;;;;;;;;;;;;;;;;5031317;28;19945;-67
2020/12/21 08:40:03;;;;;;;;;;;;;;;;;;5030737;28;20027;-68
2020/12/21 08:42:28;;;;;;;;;;;;;;;;;;5031112;28;19920;-69
2020/12/21 08:44:54;;;;;;;;;;;;;;;;;;5031573;28;19909;-69
2020/12/21 08:47:20;;;;;;;;;;;;;;;;;;5030287;28;20328;-68
2020/12/21 08:49:46;;;;;;;;;;;;;;;;;;5030298;28;19909;-68
2020/12/21 08:52:12;;;;;;;;;;;;;;;;;;5030253;28;19914;-68
2020/12/21 08:54:38;;;;;;;;;;;;;;;;;;5031823;28;20261;-69
2020/12/21 08:57:04;;;;;;;;;;;;;;;;;;5029992;28;19909;-69
2020/12/21 08:59:30;;;;;;;;;;;;;;;;;;5028439;28;19944;-69
2020/12/21 09:01:56;;;;;;;;;;;;;;;;;;5029111;28;19987;-68
2020/12/21 09:04:22;;;;;;;;;;;;;;;;;;5028999;28;19953;-68
2020/12/21 09:06:47;;;;;;;;;;;;;;;;;;5029386;28;19949;-68
2020/12/21 09:09:13;;;;;;;;;;;;;;;;;;5028960;28;20336;-68
2020/12/21 09:11:39;;;;;;;;;;;;;;;;;;5025375;28;19972;-68
2020/12/21 09:14:05;;;;;;;;;;;;;;;;;;5027682;28;19956;-68
2020/12/21 09:16:31;;;;;;;;;;;;;;;;;;5030387;28;19920;-68
2020/12/21 09:18:57;;;;;;;;;;;;;;;;;;5030441;28;20396;-68
2020/12/21 09:21:23;;;;;;;;;;;;;;;;;;5028962;28;19956;-68
2020/12/21 09:23:49;;;;;;;;;;;;;;;;;;5029328;28;20004;-68
2020/12/21 09:26:15;;;;;;;;;;;;;;;;;;5029871;28;19917;-68
2020/12/21 09:28:41;;;;;;;;;;;;;;;;;;5031001;28;19949;-68
2020/12/21 09:31:06;;;;;;;;;;;;;;;;;;5028137;28;19917;-68
2020/12/21 09:33:32;;;;;;;;;;;;;;;;;;5029467;28;19943;-68
2020/12/21 09:35:58;;;;;;;;;;;;;;;;;;5027824;28;20012;-68
2020/12/21 09:38:24;;;;;;;;;;;;;;;;;;5028219;28;19913;-68
2020/12/21 09:40:50;;;;;;;;;;;;;;;;;;5026889;28;20511;-68
2020/12/21 09:43:16;;;;;;;;;;;;;;;;;;5028953;28;20012;-67
2020/12/21 09:45:42;;;;;;;;;;;;;;;;;;5029094;28;19917;-67
2020/12/21 09:48:08;;;;;;;;;;;;;;;;;;5030034;28;19970;-67
2020/12/21 09:50:34;;;;;;;;;;;;;;;;;;5025327;28;19963;-68
2020/12/21 09:53:00;;;;;;;;;;;;;;;;;;5023326;28;20004;-67
2020/12/21 09:55:26;;;;;;;;;;;;;;;;;;5022329;28;20011;-68
2020/12/21 09:57:52;;;;;;;;;;;;;;;;;;5028524;28;19967;-68
2020/12/21 10:00:17;;;;;;;;;;;;;;;;;;5028777;28;19948;-68
2020/12/21 10:02:43;;;;;;;;;;;;;;;;;;5026198;28;20380;-68
2020/12/21 10:05:09;;;;;;;;;;;;;;;;;;5024314;28;20012;-68
2020/12/21 10:07:35;;;;;;;;;;;;;;;;;;5022526;28;19927;-67
2020/12/21 10:10:01;;;;;;;;;;;;;;;;;;5026059;28;19920;-68
2020/12/21 10:12:27;;;;;;;;;;;;;;;;;;5028714;28;20000;-67
2020/12/21 10:14:53;;;;;;;;;;;;;;;;;;5023498;28;19913;-68
2020/12/21 10:17:19;;;;;;;;;;;;;;;;;;5028787;28;20543;-67
2020/12/21 10:19:45;;;;;;;;;;;;;;;;;;5028001;28;19917;-68
2020/12/21 10:22:11;;;;;;;;;;;;;;;;;;5033635;28;19924;-68
2020/12/21 10:24:36;;;;;;;;;;;;;;;;;;5040190;28;19916;-67
2020/12/21 10:27:02;;;;;;;;;;;;;;;;;;5037845;28;20293;-68
2020/12/21 10:29:28;;;;;;;;;;;;;;;;;;5033255;28;19913;-68
2020/12/21 10:31:54;;;;;;;;;;;;;;;;;;5031982;28;19913;-69
2020/12/21 10:34:20;;;;;;;;;;;;;;;;;;5033343;28;19956;-68
2020/12/21 10:36:46;;;;;;;;;;;;;;;;;;5032421;28;20007;-68
2020/12/21 10:39:12;;;;;;;;;;;;;;;;;;5032405;28;19984;-69
2020/12/21 10:41:38;;;;;;;;;;;;;;;;;;5031087;28;19913;-68
2020/12/21 10:44:04;;;;;;;;;;;;;;;;;;5037030;28;19913;-68
2020/12/21 10:46:29;;;;;;;;;;;;;;;;;;5032342;28;19909;-68
2020/12/21 10:48:55;;;;;;;;;;;;;;;;;;5033324;28;20009;-68
2020/12/21 10:51:21;;;;;;;;;;;;;;;;;;5034354;28;19936;-68
2020/12/21 10:53:47;;;;;;;;;;;;;;;;;;5032950;28;19924;-68
2020/12/21 10:56:13;;;;;;;;;;;;;;;;;;5033278;28;19933;-68
2020/12/21 10:58:39;;;;;;;;;;;;;;;;;;5032032;28;20439;-68
2020/12/21 11:01:05;;;;;;;;;;;;;;;;;;5033029;28;19917;-69
2020/12/21 11:03:31;;;;;;;;;;;;;;;;;;5033376;28;19959;-67
2020/12/21 11:05:57;;;;;;;;;;;;;;;;;;5046562;28;20388;-67
2020/12/21 11:08:23;;;;;;;;;;;;;;;;;;5031390;28;20019;-68
2020/12/21 11:10:49;;;;;;;;;;;;;;;;;;5030269;28;19920;-67
2020/12/21 11:13:14;;;;;;;;;;;;;;;;;;5027861;28;20432;-67
2020/12/21 11:15:40;;;;;;;;;;;;;;;;;;5027515;28;20360;-66
2020/12/21 11:18:06;;;;;;;;;;;;;;;;;;5029832;28;19948;-68
2020/12/21 11:20:32;;;;;;;;;;;;;;;;;;5032278;28;20004;-67
2020/12/21 11:22:58;;;;;;;;;;;;;;;;;;5032805;28;19913;-67
2020/12/21 11:25:24;;;;;;;;;;;;;;;;;;5032110;28;19909;-67
2020/12/21 11:27:50;;;;;;;;;;;;;;;;;;5031752;28;19921;-67
2020/12/21 11:30:16;;;;;;;;;;;;;;;;;;5031849;28;20377;-67
2020/12/21 11:32:42;;;;;;;;;;;;;;;;;;5031433;28;19921;-68
2020/12/21 11:35:07;;;;;;;;;;;;;;;;;;5032948;28;19916;-68
2020/12/21 11:37:33;;;;;;;;;;;;;;;;;;5032252;28;19983;-68
2020/12/21 11:39:59;;;;;;;;;;;;;;;;;;5020483;28;20491;-68
2020/12/21 11:42:25;;;;;;;;;;;;;;;;;;5025511;28;20410;-68
2020/12/21 11:44:51;;;;;;;;;;;;;;;;;;5028225;28;19952;-68
2020/12/21 11:47:17;;;;;;;;;;;;;;;;;;5030808;28;19932;-68
2020/12/21 11:49:43;;;;;;;;;;;;;;;;;;5032627;28;19951;-68
2020/12/21 11:52:09;;;;;;;;;;;;;;;;;;5025906;28;19952;-68
2020/12/21 11:54:35;;;;;;;;;;;;;;;;;;5031488;28;20011;-68
2020/12/21 11:57:01;;;;;;;;;;;;;;;;;;5032118;28;20380;-68
2020/12/21 11:59:27;;;;;;;;;;;;;;;;;;5031815;28;19913;-67
2020/12/21 12:01:53;;;;;;;;;;;;;;;;;;5031199;28;20004;-68
2020/12/21 12:04:19;;;;;;;;;;;;;;;;;;5028731;28;20026;-68
2020/12/21 12:06:45;;;;;;;;;;;;;;;;;;5029133;28;20000;-68
2020/12/21 12:09:11;;;;;;;;;;;;;;;;;;5029935;28;19913;-68
2020/12/21 12:11:36;;;;;;;;;;;;;;;;;;5031587;28;20276;-68
2020/12/21 12:14:02;;;;;;;;;;;;;;;;;;5030359;28;19963;-68
2020/12/21 12:16:28;;;;;;;;;;;;;;;;;;5031873;28;19979;-68
2020/12/21 12:18:54;;;;;;;;;;;;;;;;;;5031675;28;21137;-68
2020/12/21 12:21:20;;;;;;;;;;;;;;;;;;5028301;28;19955;-68
2020/12/21 12:23:46;;;;;;;;;;;;;;;;;;5028551;28;20338;-68
2020/12/21 12:26:12;;;;;;;;;;;;;;;;;;5041842;28;20037;-68
2020/12/21 12:28:38;;;;;;;;;;;;;;;;;;5026149;28;20016;-69
2020/12/21 12:31:04;;;;;;;;;;;;;;;;;;5023139;28;19924;-68
2020/12/21 12:33:30;;;;;;;;;;;;;;;;;;5027953;28;20007;-68
2020/12/21 12:35:55;;;;;;;;;;;;;;;;;;5029953;28;20372;-68
2020/12/21 12:38:21;;;;;;;;;;;;;;;;;;5029182;28;20007;-68
2020/12/21 12:40:47;;;;;;;;;;;;;;;;;;5027636;28;19909;-68
2020/12/21 12:43:13;;;;;;;;;;;;;;;;;;5023449;28;19982;-68
2020/12/21 12:45:39;;;;;;;;;;;;;;;;;;5029245;28;20001;-68
2020/12/21 12:48:05;;;;;;;;;;;;;;;;;;5026694;28;19921;-68
2020/12/21 12:50:31;;;;;;;;;;;;;;;;;;5031798;28;20292;-68
2020/12/21 12:52:57;;;;;;;;;;;;;;;;;;5031956;28;19939;-68
2020/12/21 12:55:23;;;;;;;;;;;;;;;;;;5031699;28;19935;-67
2020/12/21 12:57:49;;;;;;;;;;;;;;;;;;5030995;28;19945;-68
2020/12/21 13:00:14;;;;;;;;;;;;;;;;;;5031568;28;19992;-67
2020/12/21 13:02:40;;;;;;;;;;;;;;;;;;5031471;28;19917;-68
2020/12/21 13:05:06;;;;;;;;;;;;;;;;;;5031571;28;20484;-68
2020/12/21 13:07:32;;;;;;;;;;;;;;;;;;5031625;28;19963;-68
2020/12/21 13:09:58;;;;;;;;;;;;;;;;;;5031473;28;19922;-68
2020/12/21 13:12:24;;;;;;;;;;;;;;;;;;5047097;28;19955;-68
2020/12/21 13:14:50;;;;;;;;;;;;;;;;;;5030351;28;19921;-68
2020/12/21 13:17:16;;;;;;;;;;;;;;;;;;5031387;28;19953;-68
2020/12/21 13:19:42;;;;;;;;;;;;;;;;;;5030878;28;19914;-68
2020/12/21 13:22:08;;;;;;;;;;;;;;;;;;5031372;28;20376;-68
2020/12/21 13:24:34;;;;;;;;;;;;;;;;;;5031965;28;19951;-68
2020/12/21 13:26:59;;;;;;;;;;;;;;;;;;5032816;28;20367;-69
2020/12/21 13:29:25;;;;;;;;;;;;;;;;;;5034205;28;19917;-68
2020/12/21 13:31:51;;;;;;;;;;;;;;;;;;5032003;28;19913;-68
2020/12/21 13:34:17;;;;;;;;;;;;;;;;;;5030938;28;19914;-68
2020/12/21 13:36:43;;;;;;;;;;;;;;;;;;5029676;28;19913;-68
2020/12/21 13:39:10;;;;;;;;;;;;;;;;;;5030772;28;20262;-68
2020/12/21 13:41:36;;;;;;;;;;;;;;;;;;5031637;28;19949;-68
2020/12/21 13:44:02;;;;;;;;;;;;;;;;;;5030200;28;19952;-68
2020/12/21 13:46:28;;;;;;;;;;;;;;;;;;5023214;28;19952;-68
2020/12/21 13:48:54;;;;;;;;;;;;;;;;;;5011461;28;19957;-68
2020/12/21 13:51:20;;;;;;;;;;;;;;;;;;5023616;28;20012;-68
2020/12/21 13:53:46;;;;;;;;;;;;;;;;;;5030996;28;19917;-69
2020/12/21 13:56:12;;;;;;;;;;;;;;;;;;5034387;28;19917;-68
2020/12/21 13:58:38;;;;;;;;;;;;;;;;;;5034579;28;19975;-68
2020/12/21 14:01:04;;;;;;;;;;;;;;;;;;5041519;28;20359;-68
2020/12/21 14:03:30;;;;;;;;;;;;;;;;;;5019158;28;19913;-68
2020/12/21 14:05:56;;;;;;;;;;;;;;;;;;5035262;28;19917;-68
2020/12/21 14:08:22;;;;;;;;;;;;;;;;;;5034880;28;19964;-68
2020/12/21 14:10:48;;;;;;;;;;;;;;;;;;5021231;28;19921;-68
2020/12/21 14:13:14;;;;;;;;;;;;;;;;;;5022335;28;19964;-68
2020/12/21 14:15:39;;;;;;;;;;;;;;;;;;5051781;22;19975;-74
2020/12/21 14:18:05;;;;;;;;;;;;;;;;;;5066553;28;19978;-74
2020/12/21 14:20:31;;;;;;;;;;;;;;;;;;5067484;28;20470;-75
2020/12/21 14:22:57;;;;;;;;;;;;;;;;;;5050323;28;19956;-74
2020/12/21 14:25:26;;;;;;;;;;;;;;;;;;5047921;28;19952;-73
2020/12/21 14:27:52;;;;;;;;;;;;;;;;;;5053776;28;19928;-74
2020/12/21 14:30:18;;;;;;;;;;;;;;;;;;5054956;28;19953;-73
2020/12/21 14:32:47;;;;;;;;;;;;;;;;;;5044049;28;19967;-73
2020/12/21 14:35:13;;;;;;;;;;;;;;;;;;5049428;28;20058;-73
2020/12/21 14:37:39;;;;;;;;;;;;;;;;;;5051798;28;20008;-73
2020/12/21 14:40:05;;;;;;;;;;;;;;;;;;5052436;28;19913;-73
2020/12/21 14:42:31;;;;;;;;;;;;;;;;;;5049593;28;20417;-73
2020/12/21 14:44:57;;;;;;;;;;;;;;;;;;5046817;28;19968;-73
2020/12/21 14:47:23;;;;;;;;;;;;;;;;;;5049462;28;19995;-73
2020/12/21 14:49:50;;;;;;;;;;;;;;;;;;5051085;28;20326;-73
2020/12/21 14:52:16;;;;;;;;;;;;;;;;;;5049924;28;19916;-73
2020/12/21 14:54:42;;;;;;;;;;;;;;;;;;5063422;28;20340;-73
2020/12/21 14:57:08;;;;;;;;;;;;;;;;;;5065814;28;20497;-73
2020/12/21 14:59:34;;;;;;;;;;;;;;;;;;5050174;28;19963;-73
2020/12/21 15:02:00;;;;;;;;;;;;;;;;;;5050896;28;19948;-73
2020/12/21 15:04:26;;;;;;;;;;;;;;;;;;5052461;28;20275;-73
2020/12/21 15:06:52;;;;;;;;;;;;;;;;;;5049536;28;19967;-73
2020/12/21 15:09:18;;;;;;;;;;;;;;;;;;5066195;28;19924;-77
2020/12/21 15:11:44;;;;;;;;;;;;;;;;;;5050053;28;19913;-74
2020/12/21 15:14:10;;;;;;;;;;;;;;;;;;5052539;28;19913;-76
2020/12/21 15:16:37;;;;;;;;;;;;;;;;;;5058489;28;20302;-77
2020/12/21 15:19:03;;;;;;;;;;;;;;;;;;5051315;28;19999;-76
2020/12/21 15:21:28;;;;;;;;;;;;;;;;;;5046281;28;20004;-77
2020/12/21 15:23:54;;;;;;;;;;;;;;;;;;5061534;28;19955;-80
2020/12/21 15:26:20;;;;;;;;;;;;;;;;;;5052895;28;19912;-76
2020/12/21 15:28:46;;;;;;;;;;;;;;;;;;5050549;28;19960;-77
2020/12/21 15:31:12;;;;;;;;;;;;;;;;;;5052543;28;19913;-77
2020/12/21 15:33:38;;;;;;;;;;;;;;;;;;5059332;28;19980;-85
2020/12/21 15:36:04;;;;;;;;;;;;;;;;;;5056808;28;19913;-79
2020/12/21 15:38:30;;;;;;;;;;;;;;;;;;5059008;28;20324;-80
2020/12/21 15:40:56;;;;;;;;;;;;;;;;;;5056630;28;19952;-79
2020/12/21 15:43:22;;;;;;;;;;;;;;;;;;5058008;28;19909;-78
2020/12/21 15:45:48;;;;;;;;;;;;;;;;;;5063803;28;20290;-75
2020/12/21 15:48:14;;;;;;;;;;;;;;;;;;5053165;28;20394;-77
2020/12/21 15:50:41;;;;;;;;;;;;;;;;;;5068467;28;19948;-78
2020/12/21 15:53:07;;;;;;;;;;;;;;;;;;5054535;28;19917;-77
2020/12/21 15:55:33;;;;;;;;;;;;;;;;;;5065117;28;19964;-78
2020/12/21 15:57:59;;;;;;;;;;;;;;;;;;5049539;28;19921;-76
2020/12/21 16:00:24;;;;;;;;;;;;;;;;;;5050159;28;20384;-78
2020/12/21 16:02:50;;;;;;;;;;;;;;;;;;5048810;28;19916;-76
2020/12/21 16:05:16;;;;;;;;;;;;;;;;;;5071147;28;19913;-76
2020/12/21 16:07:43;;;;;;;;;;;;;;;;;;5048698;28;19917;-73
2020/12/21 16:10:09;;;;;;;;;;;;;;;;;;5049142;28;19920;-73
2020/12/21 16:12:35;;;;;;;;;;;;;;;;;;5051718;28;19971;-74
2020/12/21 16:15:01;;;;;;;;;;;;;;;;;;5052084;28;20378;-73
2020/12/21 16:17:27;;;;;;;;;;;;;;;;;;5050638;28;19959;-73
2020/12/21 16:19:53;;;;;;;;;;;;;;;;;;5053201;28;19948;-73
2020/12/21 16:22:19;;;;;;;;;;;;;;;;;;5067910;28;19978;-76
2020/12/21 16:24:45;;;;;;;;;;;;;;;;;;5051204;28;19952;-75
2020/12/21 16:27:11;;;;;;;;;;;;;;;;;;5083088;28;19952;-76
2020/12/21 16:29:37;;;;;;;;;;;;;;;;;;5031255;28;19920;-76
2020/12/21 16:32:03;;;;;;;;;;;;;;;;;;5042177;28;19908;-77
2020/12/21 16:34:28;;;;;;;;;;;;;;;;;;5073789;28;19912;-78
2020/12/21 16:36:54;;;;;;;;;;;;;;;;;;5050911;28;19916;-76